Airfield :
LOGIN :

Register | Disclaimer

   EN    FR    IT 

 










Legend :    VFR   Marginal VFR   IFR   Intensive IFR   Very Intensive IFR
Visi :
Ceiling :
>= 8 km
>= 3000ft
5 to 8 km
1000 to 3000 ft
1500m to 5 km
500 to 1000 ft
800 to 1500m
200 to 500 ft
< 800m
< 200 ft
Symbols :   Thunderstorms  Fog  Heavy snow  Heavy precipitations  Wind > 20 kt
SIGMETs :     Misc.  Thunderstorms  Icing  Turbulence  Mountain Waves  Volcanic Ashes







- Airport Elevation : 33 ft
- IATA code : MHZ


EGUN - RAF Mildenhall

CURRENT METAR :
  • 220256Z AUTO 00000KT 9999 CLR 04/04 A2986 RMK AO2 SLP115 T00390039 57025 .

EXPIRED METARs :
  • 220156Z AUTO 00000KT 9999 CLR 05/05 A2988 RMK AO2 SLP122 T00490049 $
  • 220056Z AUTO 00000KT 9999 CLR 07/05 A2991 RMK AO2 SLP132 T00650047 $

TAF AMD TAF EGUN
Valid from the 22 at 02:00 until the 23 at 02:00 UTC


220252Z 2202/2302 10009KT 9999 SKC QNH2972INS
BECMG 2207/2208 10012G20KT 9999 SKC QNH2958INS
BECMG 2218/2219 10009KT 9999 SCT080 QNH2955INS
BECMG 2223/2224 10006KT 8000 BR SCT010 QNH2950INS TX22/2212Z TN04/2204Z LAST NO AMDS AFT 2202 NEXT 2207
No reported NOTAMs for that airfield.



MET'MAP, your aeronautical weather chart ! - Copyright ORBIFLY December 2007 - Disclaimer

ORBIFLY MET'MAP TEAM :

Programming & Development : Alexandra Zaïnal
Concept & Development : Baudouin d'Aumeries
Co-Development & Prog : Marc-Olivier Méhu
Technical & hardware support : Manuel Goepfert

Contact : metmap@orbifly.com




SOURCES & CREDITS :

   NOAA